createdAt,value
2023-04-22T00:00:35.341Z,1076.00
2023-04-22T00:01:35.388Z,1150.00
2023-04-22T00:02:35.525Z,1200.00
2023-04-22T00:03:35.740Z,1147.00
2023-04-22T00:04:35.761Z,1160.00
2023-04-22T00:05:35.626Z,1121.00
2023-04-22T00:06:35.674Z,1126.00
2023-04-22T00:07:35.676Z,1181.00
2023-04-22T00:08:35.739Z,1218.00
2023-04-22T00:09:35.995Z,1269.00
2023-04-22T00:10:35.858Z,1247.00
2023-04-22T00:11:35.909Z,1202.00
2023-04-22T00:12:35.970Z,1215.00
2023-04-22T00:13:36.084Z,1232.00
2023-04-22T00:14:36.090Z,1157.00
2023-04-22T00:15:36.153Z,1195.00
2023-04-22T00:16:36.363Z,1126.00
2023-04-22T00:17:36.310Z,1151.00
2023-04-22T00:18:36.352Z,1208.00
2023-04-22T00:19:36.668Z,1130.00
2023-04-22T00:20:36.442Z,1176.00
2023-04-22T00:21:36.496Z,1179.00
2023-04-22T00:22:36.748Z,1119.00
2023-04-22T00:23:36.592Z,1209.00
2023-04-22T00:24:36.610Z,1175.00
2023-04-22T00:25:36.625Z,1183.00
2023-04-22T00:26:36.631Z,1082.00
2023-04-22T00:27:36.644Z,1065.00
2023-04-22T00:28:36.632Z,1037.00
2023-04-22T00:29:36.806Z,1064.00
2023-04-22T00:30:36.636Z,1109.00
2023-04-22T00:31:36.784Z,986.00
2023-04-22T00:32:36.875Z,1062.00
2023-04-22T00:33:36.936Z,1134.00
2023-04-22T00:34:37.029Z,1134.00
2023-04-22T00:35:37.113Z,1222.00
2023-04-22T00:36:37.191Z,1130.00
2023-04-22T00:37:37.304Z,1171.00
2023-04-22T00:38:37.455Z,1136.00
2023-04-22T00:39:37.861Z,1143.00
2023-04-22T00:40:37.514Z,1074.00
2023-04-22T00:41:37.502Z,1105.00
2023-04-22T00:42:37.528Z,1146.00
2023-04-22T00:43:37.678Z,1109.00
2023-04-22T00:44:37.508Z,1169.00
2023-04-22T00:45:37.532Z,1131.00
2023-04-22T00:46:37.547Z,1175.00
2023-04-22T00:47:37.587Z,1214.00
2023-04-22T00:48:37.553Z,1193.00
2023-04-22T00:49:37.773Z,1165.00
2023-04-22T00:50:37.544Z,1205.00
2023-04-22T00:51:37.577Z,1207.00
2023-04-22T00:52:37.573Z,1200.00
2023-04-22T00:53:37.634Z,1233.00
2023-04-22T00:54:37.603Z,1198.00
2023-04-22T00:55:37.571Z,1173.00
2023-04-22T00:56:37.544Z,1196.00
2023-04-22T00:57:37.570Z,1218.00
2023-04-22T00:58:37.553Z,1195.00
2023-04-22T00:59:37.896Z,1234.00
2023-04-22T01:00:37.699Z,1227.00
2023-04-22T01:01:37.587Z,1202.00
2023-04-22T01:02:37.703Z,1155.00
2023-04-22T01:03:37.772Z,1140.00
2023-04-22T01:04:37.623Z,1086.00
2023-04-22T01:05:37.607Z,1055.00
2023-04-22T01:06:37.616Z,1075.00
2023-04-22T01:07:37.679Z,1054.00
2023-04-22T01:08:37.633Z,1157.00
2023-04-22T01:09:37.926Z,1204.00
2023-04-22T01:10:37.638Z,1198.00
2023-04-22T01:11:37.707Z,1253.00
2023-04-22T01:12:37.754Z,1173.00
2023-04-22T01:13:37.738Z,1185.00
2023-04-22T01:14:37.768Z,1317.00
2023-04-22T01:15:37.768Z,1266.00
2023-04-22T01:16:37.820Z,1149.00
2023-04-22T01:17:37.857Z,1095.00
2023-04-22T01:18:37.889Z,1008.00
2023-04-22T01:19:38.312Z,825.00
2023-04-22T01:20:38.008Z,845.00
2023-04-22T01:21:38.070Z,879.00
2023-04-22T01:22:38.134Z,856.00
2023-04-22T01:23:38.204Z,876.00
2023-04-22T01:24:38.255Z,838.00
2023-04-22T01:25:38.251Z,962.00
2023-04-22T01:26:38.295Z,972.00
2023-04-22T01:27:38.367Z,948.00
2023-04-22T01:28:38.397Z,989.00
2023-04-22T01:29:38.733Z,983.00
2023-04-22T01:30:38.453Z,874.00
2023-04-22T01:31:38.554Z,825.00
2023-04-22T01:32:38.590Z,787.00
2023-04-22T01:33:38.570Z,794.00
2023-04-22T01:34:38.591Z,941.00
2023-04-22T01:35:38.732Z,926.00
2023-04-22T01:36:38.672Z,1051.00
2023-04-22T01:37:38.771Z,1112.00
2023-04-22T01:38:38.745Z,1151.00
2023-04-22T01:39:38.890Z,1051.00
2023-04-22T01:40:38.847Z,964.00
2023-04-22T01:41:38.866Z,935.00
2023-04-22T01:42:38.954Z,926.00
2023-04-22T01:43:38.984Z,963.00
2023-04-22T01:44:39.066Z,998.00
2023-04-22T01:45:39.150Z,978.00
2023-04-22T01:46:39.180Z,1006.00
2023-04-22T01:47:39.250Z,962.00
2023-04-22T01:48:39.229Z,763.00
2023-04-22T01:49:39.471Z,872.00
2023-04-22T01:50:39.400Z,892.00
2023-04-22T01:51:40.127Z,892.00
2023-04-22T01:52:39.506Z,975.00
2023-04-22T01:53:39.532Z,911.00
2023-04-22T01:54:39.574Z,959.00
2023-04-22T01:55:39.631Z,892.00
2023-04-22T01:56:39.695Z,951.00
2023-04-22T01:57:39.763Z,915.00
2023-04-22T01:58:39.968Z,994.00
2023-04-22T01:59:40.071Z,1086.00
2023-04-22T02:00:39.921Z,1146.00
2023-04-22T02:01:40.026Z,1173.00
2023-04-22T02:02:40.110Z,1181.00
2023-04-22T02:03:40.178Z,1067.00
2023-04-22T02:04:40.161Z,1144.00
2023-04-22T02:05:40.230Z,1186.00
2023-04-22T02:06:40.262Z,1210.00
2023-04-22T02:07:40.330Z,1253.00
2023-04-22T02:08:40.388Z,1238.00
2023-04-22T02:09:40.839Z,1293.00
2023-04-22T02:10:40.496Z,1244.00
2023-04-22T02:11:40.564Z,1126.00
2023-04-22T02:12:40.614Z,1089.00
2023-04-22T02:13:41.175Z,1192.00
2023-04-22T02:14:40.632Z,1145.00
2023-04-22T02:15:40.671Z,1092.00
2023-04-22T02:16:40.710Z,1018.00
2023-04-22T02:17:40.964Z,1085.00
2023-04-22T02:18:40.930Z,1019.00
2023-04-22T02:19:41.136Z,979.00
2023-04-22T02:20:40.969Z,903.00
2023-04-22T02:21:40.977Z,929.00
2023-04-22T02:22:40.986Z,1055.00
2023-04-22T02:23:41.088Z,1192.00
2023-04-22T02:24:41.091Z,1162.00
2023-04-22T02:25:41.179Z,1105.00
2023-04-22T02:26:41.177Z,1066.00
2023-04-22T02:27:41.247Z,1055.00
2023-04-22T02:28:41.278Z,1034.00
2023-04-22T02:29:41.619Z,1082.00
2023-04-22T02:30:41.348Z,1109.00
2023-04-22T02:31:41.445Z,1151.00
2023-04-22T02:32:41.498Z,1114.00
2023-04-22T02:33:41.487Z,1091.00
2023-04-22T02:34:41.486Z,1004.00
2023-04-22T02:35:41.662Z,1037.00
2023-04-22T02:36:41.540Z,1020.00
2023-04-22T02:37:41.491Z,1004.00
2023-04-22T02:38:41.503Z,937.00
2023-04-22T02:39:41.858Z,868.00
2023-04-22T02:40:41.531Z,872.00
2023-04-22T02:41:41.598Z,911.00
2023-04-22T02:42:41.596Z,1003.00
2023-04-22T02:43:41.590Z,1057.00
2023-04-22T02:44:41.615Z,1079.00
2023-04-22T02:45:41.717Z,1027.00
2023-04-22T02:46:41.729Z,1050.00
2023-04-22T02:47:41.731Z,1016.00
2023-04-22T02:48:41.751Z,991.00
2023-04-22T02:49:41.937Z,943.00
2023-04-22T02:50:41.743Z,966.00
2023-04-22T02:51:41.765Z,913.00
2023-04-22T02:52:41.796Z,915.00
2023-04-22T02:53:41.801Z,925.00
2023-04-22T02:54:41.851Z,904.00
2023-04-22T02:55:41.869Z,836.00
2023-04-22T02:56:41.879Z,828.00
2023-04-22T02:57:41.895Z,798.00
2023-04-22T02:58:41.933Z,845.00
2023-04-22T02:59:42.266Z,814.00
2023-04-22T03:00:42.043Z,909.00
2023-04-22T03:01:41.965Z,923.00
2023-04-22T03:02:42.283Z,927.00
2023-04-22T03:03:42.286Z,945.00
2023-04-22T03:04:42.147Z,956.00
2023-04-22T03:05:42.155Z,918.00
2023-04-22T03:06:42.181Z,924.00
2023-04-22T03:07:42.200Z,1014.00
2023-04-22T03:08:42.269Z,1009.00
2023-04-22T03:09:42.515Z,1015.00
2023-04-22T03:10:42.335Z,1049.00
2023-04-22T03:11:42.363Z,1014.00
2023-04-22T03:12:42.415Z,984.00
2023-04-22T03:13:42.520Z,1015.00
2023-04-22T03:14:42.535Z,1073.00
2023-04-22T03:15:42.652Z,1100.00
2023-04-22T03:16:42.611Z,965.00
2023-04-22T03:17:42.609Z,963.00
2023-04-22T03:18:43.170Z,963.00
2023-04-22T03:19:42.949Z,1038.00
2023-04-22T03:20:42.774Z,1174.00
2023-04-22T03:21:43.130Z,1234.00
2023-04-22T03:22:42.900Z,1225.00
2023-04-22T03:23:42.943Z,1307.00
2023-04-22T03:24:43.019Z,1325.00
2023-04-22T03:25:43.050Z,1257.00
2023-04-22T03:26:43.055Z,1267.00
2023-04-22T03:27:43.178Z,1239.00
2023-04-22T03:28:43.168Z,1285.00
2023-04-22T03:29:43.352Z,1287.00
2023-04-22T03:30:43.299Z,1281.00
2023-04-22T03:31:43.414Z,1251.00
2023-04-22T03:32:43.428Z,1340.00
2023-04-22T03:33:43.466Z,1336.00
2023-04-22T03:34:43.533Z,1436.00
2023-04-22T03:35:43.648Z,1483.00
2023-04-22T03:36:43.633Z,1572.00
2023-04-22T03:37:43.707Z,1520.00
2023-04-22T03:38:43.746Z,1469.00
2023-04-22T03:39:43.816Z,1519.00
2023-04-22T03:40:43.866Z,1566.00
2023-04-22T03:41:43.939Z,1572.00
2023-04-22T03:42:43.973Z,1507.00
2023-04-22T03:43:44.056Z,1476.00
2023-04-22T03:44:44.067Z,1393.00
2023-04-22T03:45:44.132Z,1396.00
2023-04-22T03:46:44.097Z,1422.00
2023-04-22T03:47:44.091Z,1499.00
2023-04-22T03:48:44.072Z,1477.00
2023-04-22T03:49:44.136Z,1562.00
2023-04-22T03:50:44.199Z,1560.00
2023-04-22T03:51:44.255Z,1501.00
2023-04-22T03:52:44.318Z,1530.00
2023-04-22T03:53:44.328Z,1459.00
2023-04-22T03:54:44.379Z,1410.00
2023-04-22T03:55:44.477Z,1360.00
2023-04-22T03:56:44.483Z,1413.00
2023-04-22T03:57:44.545Z,1448.00
2023-04-22T03:58:44.598Z,1509.00
2023-04-22T03:59:44.662Z,1563.00
2023-04-22T04:00:44.707Z,1571.00
2023-04-22T04:01:44.817Z,1536.00
2023-04-22T04:02:45.200Z,1531.00
2023-04-22T04:03:45.024Z,1540.00
2023-04-22T04:04:45.100Z,1503.00
2023-04-22T04:05:45.048Z,1520.00
2023-04-22T04:06:45.026Z,1500.00
2023-04-22T04:07:45.078Z,1530.00
2023-04-22T04:08:45.078Z,1582.00
2023-04-22T04:09:45.133Z,1563.00
2023-04-22T04:10:45.215Z,1571.00
2023-04-22T04:11:45.192Z,1561.00
2023-04-22T04:12:45.265Z,1570.00
2023-04-22T04:13:45.325Z,1580.00
2023-04-22T04:14:45.326Z,1596.00
2023-04-22T04:15:45.434Z,1589.00
2023-04-22T04:16:45.699Z,1618.00
2023-04-22T04:17:45.503Z,1613.00
2023-04-22T04:18:45.526Z,1641.00
2023-04-22T04:19:45.560Z,1623.00
2023-04-22T04:20:45.629Z,1653.00
2023-04-22T04:21:45.676Z,1683.00
2023-04-22T04:22:45.745Z,1622.00
2023-04-22T04:23:45.801Z,1600.00
2023-04-22T04:24:45.868Z,1628.00
2023-04-22T04:25:45.910Z,1643.00
2023-04-22T04:26:45.911Z,1676.00
2023-04-22T04:27:45.970Z,1711.00
2023-04-22T04:28:46.021Z,1758.00
2023-04-22T04:29:46.152Z,1777.00
2023-04-22T04:30:46.192Z,1801.00
2023-04-22T04:31:46.328Z,1771.00
2023-04-22T04:32:46.348Z,1801.00
2023-04-22T04:33:46.368Z,1809.00
2023-04-22T04:34:46.369Z,1805.00
2023-04-22T04:35:46.391Z,1845.00
2023-04-22T04:36:46.400Z,1857.00
2023-04-22T04:37:46.458Z,1892.00
2023-04-22T04:38:46.501Z,1895.00
2023-04-22T04:39:46.506Z,1924.00
2023-04-22T04:40:46.582Z,1946.00
2023-04-22T04:41:46.634Z,1943.00
2023-04-22T04:42:46.732Z,1831.00
2023-04-22T04:43:46.643Z,1836.00
2023-04-22T04:44:46.650Z,1806.00
2023-04-22T04:45:48.354Z,1811.00
2023-04-22T04:46:46.729Z,1837.00
2023-04-22T04:47:46.734Z,1854.00
2023-04-22T04:48:46.696Z,1914.00
2023-04-22T04:49:46.700Z,1946.00
2023-04-22T04:50:46.742Z,1898.00
2023-04-22T04:51:46.872Z,1875.00
2023-04-22T04:52:46.900Z,1862.00
2023-04-22T04:53:46.982Z,1861.00
2023-04-22T04:54:47.008Z,1844.00
2023-04-22T04:55:47.205Z,1835.00
2023-04-22T04:56:47.145Z,1823.00
2023-04-22T04:57:47.234Z,1810.00
2023-04-22T04:58:47.279Z,1789.00
2023-04-22T04:59:47.318Z,1747.00
2023-04-22T05:00:47.383Z,1686.00
2023-04-22T05:01:47.475Z,1691.00
2023-04-22T05:02:47.604Z,1718.00
2023-04-22T05:03:47.736Z,1665.00
2023-04-22T05:04:47.718Z,1606.00
2023-04-22T05:05:47.726Z,1646.00
2023-04-22T05:06:47.773Z,1662.00
2023-04-22T05:07:47.780Z,1640.00
2023-04-22T05:08:47.797Z,1597.00
2023-04-22T05:09:47.848Z,1604.00
2023-04-22T05:10:48.115Z,1519.00
2023-04-22T05:11:47.968Z,1421.00
2023-04-22T05:12:47.963Z,1426.00
2023-04-22T05:13:48.036Z,1450.00
2023-04-22T05:14:48.071Z,1464.00
2023-04-22T05:15:48.254Z,1496.00
2023-04-22T05:16:48.262Z,1530.00
2023-04-22T05:17:48.306Z,1488.00
2023-04-22T05:18:48.268Z,1462.00
2023-04-22T05:19:48.281Z,1439.00
2023-04-22T05:20:48.336Z,1354.00
2023-04-22T05:21:48.405Z,1262.00
2023-04-22T05:22:48.460Z,1252.00
2023-04-22T05:23:48.440Z,1349.00
2023-04-22T05:24:48.521Z,1356.00
2023-04-22T05:25:49.144Z,1362.00
2023-04-22T05:26:48.589Z,1401.00
2023-04-22T05:27:48.643Z,1450.00
2023-04-22T05:28:48.701Z,1395.00
2023-04-22T05:29:48.780Z,1385.00
2023-04-22T05:30:48.819Z,1399.00
2023-04-22T05:31:48.898Z,1469.00
2023-04-22T05:32:48.906Z,1487.00
2023-04-22T05:33:48.934Z,1541.00
2023-04-22T05:34:48.945Z,1560.00
2023-04-22T05:35:49.007Z,1617.00
2023-04-22T05:36:49.065Z,1682.00
2023-04-22T05:37:49.050Z,1673.00
2023-04-22T05:38:49.123Z,1667.00
2023-04-22T05:39:49.170Z,1631.00
2023-04-22T05:40:49.177Z,1709.00
2023-04-22T05:41:49.386Z,1737.00
2023-04-22T05:42:49.293Z,1746.00
2023-04-22T05:43:49.447Z,1717.00
2023-04-22T05:44:49.405Z,1745.00
2023-04-22T05:45:49.531Z,1750.00
2023-04-22T05:46:49.541Z,1746.00
2023-04-22T05:47:49.601Z,1794.00
2023-04-22T05:48:49.562Z,1750.00
2023-04-22T05:49:49.579Z,1804.00
2023-04-22T05:50:49.550Z,1857.00
2023-04-22T05:51:49.626Z,1938.00
2023-04-22T05:52:49.621Z,1933.00
2023-04-22T05:53:49.628Z,1955.00
2023-04-22T05:54:49.645Z,1914.00
2023-04-22T05:55:49.794Z,1907.00
2023-04-22T05:56:49.714Z,1910.00
2023-04-22T05:57:50.121Z,1901.00
2023-04-22T05:58:49.818Z,1799.00
2023-04-22T05:59:49.893Z,1740.00
2023-04-22T06:00:49.817Z,1793.00
2023-04-22T06:01:49.901Z,1780.00
2023-04-22T06:02:50.106Z,1891.00
2023-04-22T06:03:50.204Z,1903.00
2023-04-22T06:04:50.432Z,1886.00
2023-04-22T06:05:50.068Z,1892.00
2023-04-22T06:06:49.977Z,1799.00
2023-04-22T06:07:50.026Z,1817.00
2023-04-22T06:08:50.095Z,1826.00
2023-04-22T06:09:51.089Z,1808.00
2023-04-22T06:10:50.166Z,1850.00
2023-04-22T06:11:50.104Z,1832.00
2023-04-22T06:12:50.117Z,1823.00
2023-04-22T06:13:50.140Z,1877.00
2023-04-22T06:14:50.075Z,1836.00
2023-04-22T06:15:50.154Z,1769.00
2023-04-22T06:16:50.089Z,1716.00
2023-04-22T06:17:50.276Z,1674.00
2023-04-22T06:18:50.045Z,1594.00
2023-04-22T06:19:50.111Z,1514.00
2023-04-22T06:20:50.066Z,1449.00
2023-04-22T06:21:50.023Z,1474.00
2023-04-22T06:22:50.033Z,1369.00
2023-04-22T06:23:50.036Z,1364.00
2023-04-22T06:24:50.036Z,1349.00
2023-04-22T06:25:49.983Z,1445.00
2023-04-22T06:26:50.016Z,1520.00
2023-04-22T06:27:50.017Z,1625.00
2023-04-22T06:28:50.025Z,1623.00
2023-04-22T06:29:49.974Z,1591.00
2023-04-22T06:30:49.994Z,1587.00
2023-04-22T06:31:50.063Z,1616.00
2023-04-22T06:32:50.057Z,1677.00
2023-04-22T06:33:50.012Z,1665.00
2023-04-22T06:34:50.010Z,1746.00
2023-04-22T06:35:49.961Z,1758.00
2023-04-22T06:36:49.918Z,1785.00
2023-04-22T06:37:49.924Z,1823.00
2023-04-22T06:38:49.922Z,1814.00
2023-04-22T06:39:49.940Z,1771.00
2023-04-22T06:40:49.878Z,1716.00
2023-04-22T06:41:49.899Z,1702.00
2023-04-22T06:42:49.894Z,1668.00
2023-04-22T06:43:49.913Z,1615.00
2023-04-22T06:44:49.890Z,1712.00
2023-04-22T06:45:49.885Z,1663.00
2023-04-22T06:46:49.918Z,1701.00
2023-04-22T06:47:49.959Z,1661.00
2023-04-22T06:48:49.849Z,1620.00
2023-04-22T06:49:49.841Z,1569.00
2023-04-22T06:50:50.033Z,1554.00
2023-04-22T06:51:49.868Z,1533.00
2023-04-22T06:52:49.833Z,1445.00
2023-04-22T06:53:49.828Z,1455.00
2023-04-22T06:54:49.851Z,1452.00
2023-04-22T06:55:49.847Z,1479.00
2023-04-22T06:56:49.866Z,1464.00
2023-04-22T06:57:49.787Z,1430.00
2023-04-22T06:58:49.832Z,1442.00
2023-04-22T06:59:49.761Z,1432.00
2023-04-22T07:00:49.785Z,1444.00
2023-04-22T07:01:49.796Z,1467.00
2023-04-22T07:02:49.847Z,1466.00
2023-04-22T07:03:49.822Z,1461.00
2023-04-22T07:04:49.748Z,1471.00
2023-04-22T07:05:49.759Z,1445.00
2023-04-22T07:06:49.697Z,1442.00
2023-04-22T07:07:49.721Z,1463.00
2023-04-22T07:08:49.729Z,1417.00
2023-04-22T07:09:49.731Z,1359.00
2023-04-22T07:10:49.738Z,1190.00
2023-04-22T07:11:49.765Z,1069.00
2023-04-22T07:12:49.761Z,1190.00
2023-04-22T07:13:49.785Z,1364.00
2023-04-22T07:14:49.794Z,1341.00
2023-04-22T07:15:49.916Z,1428.00
2023-04-22T07:16:50.033Z,1451.00
2023-04-22T07:17:50.044Z,1487.00
2023-04-22T07:18:50.097Z,1429.00
2023-04-22T07:19:50.153Z,1510.00
2023-04-22T07:20:50.224Z,1545.00
2023-04-22T07:21:50.215Z,1508.00
2023-04-22T07:22:50.268Z,1572.00
2023-04-22T07:23:50.335Z,1503.00
2023-04-22T07:24:50.339Z,1482.00
2023-04-22T07:25:50.382Z,1322.00
2023-04-22T07:26:50.465Z,1189.00
2023-04-22T07:27:50.471Z,1175.00
2023-04-22T07:28:50.521Z,1163.00
2023-04-22T07:29:51.049Z,1172.00
2023-04-22T07:30:50.604Z,1057.00
2023-04-22T07:31:50.679Z,1045.00
2023-04-22T07:32:50.689Z,903.00
2023-04-22T07:33:50.726Z,968.00
2023-04-22T07:34:50.792Z,980.00
2023-04-22T07:35:50.825Z,871.00
2023-04-22T07:36:50.830Z,823.00
2023-04-22T07:37:50.896Z,735.00
2023-04-22T07:38:50.964Z,705.00
2023-04-22T07:39:50.986Z,802.00
2023-04-22T07:40:51.062Z,856.00
2023-04-22T07:41:51.117Z,859.00
2023-04-22T07:42:51.168Z,1061.00
2023-04-22T07:43:51.183Z,1025.00
2023-04-22T07:44:51.244Z,1013.00
2023-04-22T07:45:51.325Z,881.00
2023-04-22T07:46:51.301Z,889.00
2023-04-22T07:47:51.413Z,863.00
2023-04-22T07:48:51.387Z,851.00
2023-04-22T07:49:51.448Z,852.00
2023-04-22T07:50:51.468Z,784.00
2023-04-22T07:51:51.473Z,763.00
2023-04-22T07:52:51.559Z,762.00
2023-04-22T07:53:51.584Z,623.00
2023-04-22T07:54:51.598Z,582.00
2023-04-22T07:55:51.678Z,542.00
2023-04-22T07:56:51.722Z,519.00
2023-04-22T07:57:51.740Z,513.00
2023-04-22T07:58:51.841Z,520.00
2023-04-22T07:59:51.875Z,588.00
2023-04-22T08:00:52.020Z,632.00
2023-04-22T08:01:51.970Z,636.00
2023-04-22T08:02:52.115Z,645.00
2023-04-22T08:03:52.428Z,660.00
2023-04-22T08:04:52.255Z,662.00
2023-04-22T08:05:52.223Z,781.00
2023-04-22T08:06:52.238Z,725.00
2023-04-22T08:07:52.272Z,759.00
2023-04-22T08:08:52.312Z,557.00
2023-04-22T08:09:52.317Z,513.00
2023-04-22T08:10:52.346Z,512.00
2023-04-22T08:11:52.361Z,508.00
2023-04-22T08:12:52.380Z,580.00
2023-04-22T08:13:52.446Z,558.00
2023-04-22T08:14:52.469Z,554.00
2023-04-22T08:15:52.529Z,551.00
2023-04-22T08:16:52.479Z,510.00
2023-04-22T08:17:52.554Z,504.00
2023-04-22T08:18:52.564Z,552.00
2023-04-22T08:19:52.558Z,568.00
2023-04-22T08:20:52.563Z,551.00
2023-04-22T08:21:52.605Z,568.00
2023-04-22T08:22:52.586Z,519.00
2023-04-22T08:23:52.621Z,530.00
2023-04-22T08:24:52.644Z,553.00
2023-04-22T08:25:52.649Z,565.00
2023-04-22T08:26:52.664Z,565.00
2023-04-22T08:27:52.646Z,557.00
2023-04-22T08:28:52.662Z,514.00
2023-04-22T08:29:52.688Z,524.00
2023-04-22T08:30:52.649Z,500.00
2023-04-22T08:31:52.642Z,517.00
2023-04-22T08:32:52.735Z,493.00
2023-04-22T08:33:52.712Z,500.00
2023-04-22T08:34:54.241Z,524.00
2023-04-22T08:35:53.731Z,467.00
2023-04-22T08:36:52.682Z,408.00
2023-04-22T08:37:52.639Z,400.00
2023-04-22T08:38:52.690Z,462.00
2023-04-22T08:39:52.641Z,479.00
2023-04-22T08:40:52.636Z,581.00
2023-04-22T08:41:52.601Z,607.00
2023-04-22T08:42:52.683Z,565.00
2023-04-22T08:43:52.631Z,545.00
2023-04-22T08:44:52.589Z,510.00
2023-04-22T08:45:52.590Z,527.00
2023-04-22T08:46:52.650Z,559.00
2023-04-22T08:47:52.666Z,510.00
2023-04-22T08:48:52.549Z,510.00
2023-04-22T08:49:52.601Z,567.00
2023-04-22T08:50:52.599Z,557.00
2023-04-22T08:51:52.686Z,562.00
2023-04-22T08:52:52.720Z,648.00
2023-04-22T08:53:52.784Z,604.00
2023-04-22T08:54:52.788Z,591.00
2023-04-22T08:55:52.861Z,602.00
2023-04-22T08:56:52.914Z,627.00
2023-04-22T08:57:52.947Z,594.00
2023-04-22T08:58:52.993Z,592.00
2023-04-22T08:59:53.039Z,573.00
2023-04-22T09:00:53.091Z,580.00
2023-04-22T09:01:53.157Z,552.00
2023-04-22T09:02:53.259Z,551.00
2023-04-22T09:03:53.309Z,546.00
2023-04-22T09:04:53.281Z,556.00
2023-04-22T09:05:53.301Z,529.00
2023-04-22T09:06:53.321Z,485.00
2023-04-22T09:07:53.328Z,595.00
2023-04-22T09:08:53.401Z,552.00
2023-04-22T09:09:53.409Z,512.00
2023-04-22T09:10:53.452Z,474.00
2023-04-22T09:11:53.483Z,592.00
2023-04-22T09:12:53.533Z,580.00
2023-04-22T09:13:53.644Z,700.00
2023-04-22T09:14:53.593Z,661.00
2023-04-22T09:15:53.645Z,583.00
2023-04-22T09:16:53.727Z,486.00
2023-04-22T09:17:53.696Z,512.00
2023-04-22T09:18:53.727Z,524.00
2023-04-22T09:19:53.712Z,603.00
2023-04-22T09:20:53.721Z,661.00
2023-04-22T09:21:54.418Z,828.00
2023-04-22T09:22:53.813Z,843.00
2023-04-22T09:23:53.822Z,935.00
2023-04-22T09:24:53.828Z,1050.00
2023-04-22T09:25:53.832Z,958.00
2023-04-22T09:26:53.824Z,760.00
2023-04-22T09:27:53.841Z,604.00
2023-04-22T09:28:53.899Z,701.00
2023-04-22T09:29:53.855Z,634.00
2023-04-22T09:30:53.859Z,708.00
2023-04-22T09:31:53.886Z,812.00
2023-04-22T09:32:54.007Z,808.00
2023-04-22T09:33:53.890Z,731.00
2023-04-22T09:34:53.919Z,779.00
2023-04-22T09:35:53.897Z,545.00
2023-04-22T09:36:53.847Z,584.00
2023-04-22T09:37:53.882Z,635.00
2023-04-22T09:38:53.844Z,731.00
2023-04-22T09:39:53.855Z,737.00
2023-04-22T09:40:53.868Z,648.00
2023-04-22T09:41:53.883Z,503.00
2023-04-22T09:42:53.872Z,501.00
2023-04-22T09:43:53.884Z,530.00
2023-04-22T09:44:53.839Z,620.00
2023-04-22T09:45:53.942Z,782.00
2023-04-22T09:46:53.905Z,876.00
2023-04-22T09:47:53.997Z,786.00
2023-04-22T09:48:54.036Z,877.00
2023-04-22T09:49:54.110Z,1055.00
2023-04-22T09:50:54.088Z,838.00
2023-04-22T09:51:54.200Z,932.00
2023-04-22T09:52:54.261Z,1048.00
2023-04-22T09:53:54.313Z,763.00
2023-04-22T09:54:54.341Z,1128.00
2023-04-22T09:55:54.548Z,1184.00
2023-04-22T09:56:54.450Z,1174.00
2023-04-22T09:57:54.579Z,1031.00
2023-04-22T09:58:54.605Z,1185.00
2023-04-22T09:59:54.599Z,1167.00
2023-04-22T10:00:54.724Z,1154.00
2023-04-22T10:01:54.695Z,1075.00
2023-04-22T10:02:54.813Z,1351.00
2023-04-22T10:03:54.824Z,1340.00
2023-04-22T10:04:54.805Z,1494.00
2023-04-22T10:05:54.933Z,1233.00
2023-04-22T10:06:54.874Z,1382.00
2023-04-22T10:07:54.947Z,1436.00
2023-04-22T10:08:54.999Z,1263.00
2023-04-22T10:09:55.054Z,1370.00
2023-04-22T10:10:55.017Z,1496.00
2023-04-22T10:11:55.055Z,1541.00
2023-04-22T10:12:55.053Z,1305.00
2023-04-22T10:13:55.076Z,1517.00
2023-04-22T10:14:55.080Z,1855.00
2023-04-22T10:15:55.138Z,1846.00
2023-04-22T10:16:55.171Z,1654.00
2023-04-22T10:17:55.170Z,1631.00
2023-04-22T10:18:55.252Z,1597.00
2023-04-22T10:19:55.236Z,1922.00
2023-04-22T10:20:55.426Z,1739.00
2023-04-22T10:21:55.319Z,2028.00
2023-04-22T10:22:55.285Z,2077.00
2023-04-22T10:23:55.481Z,1954.00
2023-04-22T10:24:55.413Z,1829.00
2023-04-22T10:25:55.375Z,1985.00
2023-04-22T10:26:56.912Z,2074.00
2023-04-22T10:27:55.353Z,2312.00
2023-04-22T10:28:55.386Z,2404.00
2023-04-22T10:29:55.426Z,2450.00
2023-04-22T10:30:55.546Z,2309.00
2023-04-22T10:31:55.608Z,2297.00
2023-04-22T10:32:55.758Z,2310.00
2023-04-22T10:33:55.640Z,2364.00
2023-04-22T10:34:55.724Z,2334.00
2023-04-22T10:35:55.726Z,2341.00
2023-04-22T10:36:55.779Z,2230.00
2023-04-22T10:37:55.884Z,2218.00
2023-04-22T10:38:55.957Z,2269.00
2023-04-22T10:39:55.996Z,2160.00
2023-04-22T10:40:56.067Z,2325.00
2023-04-22T10:41:56.229Z,2304.00
2023-04-22T10:42:56.179Z,2402.00
2023-04-22T10:43:56.219Z,2525.00
2023-04-22T10:44:56.518Z,2470.00
2023-04-22T10:45:56.678Z,2217.00
2023-04-22T10:46:56.373Z,2288.00
2023-04-22T10:47:56.484Z,2227.00
2023-04-22T10:48:56.461Z,2123.00
2023-04-22T10:49:56.532Z,2220.00
2023-04-22T10:50:56.541Z,2289.00
2023-04-22T10:51:56.595Z,2222.00
2023-04-22T10:52:56.634Z,2162.00
2023-04-22T10:53:56.704Z,2336.00
2023-04-22T10:54:56.715Z,2320.00
2023-04-22T10:55:56.763Z,2303.00
2023-04-22T10:56:58.313Z,2242.00
2023-04-22T10:57:56.808Z,2224.00
2023-04-22T10:58:56.863Z,2279.00
2023-04-22T10:59:56.861Z,2287.00
2023-04-22T11:00:56.934Z,2206.00
2023-04-22T11:01:56.962Z,2164.00
2023-04-22T11:02:57.062Z,2140.00
2023-04-22T11:03:57.057Z,2194.00
2023-04-22T11:04:57.048Z,2269.00
2023-04-22T11:05:57.061Z,2353.00
2023-04-22T11:06:57.078Z,2336.00
2023-04-22T11:07:57.130Z,2330.00
2023-04-22T11:08:57.133Z,2345.00
2023-04-22T11:09:57.215Z,2285.00
2023-04-22T11:10:57.159Z,2434.00
2023-04-22T11:11:57.201Z,2440.00
2023-04-22T11:12:57.212Z,2460.00
2023-04-22T11:13:57.244Z,2436.00
2023-04-22T11:14:57.263Z,2401.00
2023-04-22T11:15:57.264Z,2329.00
2023-04-22T11:16:57.297Z,2342.00
2023-04-22T11:17:57.345Z,2345.00
2023-04-22T11:18:57.313Z,2451.00
2023-04-22T11:19:57.304Z,2463.00
2023-04-22T11:20:57.322Z,2423.00
2023-04-22T11:21:57.344Z,2444.00
2023-04-22T11:22:57.336Z,2328.00
2023-04-22T11:23:57.314Z,2301.00
2023-04-22T11:24:57.335Z,2194.00
2023-04-22T11:25:57.336Z,2203.00
2023-04-22T11:26:57.311Z,2327.00
2023-04-22T11:27:57.358Z,2380.00
2023-04-22T11:28:57.348Z,2519.00
2023-04-22T11:29:57.319Z,2516.00
2023-04-22T11:30:57.333Z,2439.00
2023-04-22T11:31:57.447Z,2506.00
2023-04-22T11:32:57.423Z,2478.00
2023-04-22T11:33:57.454Z,2471.00
2023-04-22T11:34:57.513Z,2370.00
2023-04-22T11:35:57.505Z,2308.00
2023-04-22T11:36:57.607Z,2371.00
2023-04-22T11:37:57.635Z,2443.00
2023-04-22T11:38:57.701Z,2476.00
2023-04-22T11:40:17.284Z,2432.00
2023-04-22T11:40:58.793Z,2180.00
2023-04-22T11:41:57.754Z,2215.00
2023-04-22T11:42:57.731Z,2361.00
2023-04-22T11:43:57.774Z,2306.00
2023-04-22T11:44:57.692Z,2352.00
2023-04-22T11:45:57.788Z,2449.00
2023-04-22T11:46:57.752Z,2543.00
2023-04-22T11:47:57.730Z,2415.00
2023-04-22T11:48:57.731Z,2377.00
2023-04-22T11:49:57.736Z,2437.00
2023-04-22T11:50:57.742Z,2419.00
2023-04-22T11:51:57.831Z,2414.00
2023-04-22T11:52:57.786Z,2322.00
2023-04-22T11:53:57.850Z,2435.00
2023-04-22T11:54:57.907Z,2327.00
2023-04-22T11:55:57.947Z,2319.00
2023-04-22T11:56:57.977Z,2200.00
2023-04-22T11:57:58.024Z,2086.00
2023-04-22T11:58:58.079Z,2085.00
2023-04-22T11:59:58.197Z,2128.00
2023-04-22T12:00:58.128Z,2146.00
2023-04-22T12:01:58.186Z,2094.00
2023-04-22T12:02:58.276Z,2170.00
2023-04-22T12:03:58.408Z,2187.00
2023-04-22T12:04:58.292Z,2210.00
2023-04-22T12:05:58.285Z,2299.00
2023-04-22T12:06:58.263Z,2283.00
2023-04-22T12:07:58.333Z,2201.00
2023-04-22T12:08:58.294Z,2254.00
2023-04-22T12:09:58.301Z,2336.00
2023-04-22T12:10:58.310Z,2329.00
2023-04-22T12:11:58.319Z,2332.00